Time;durP1;ratioP1;P1;durP2;ratioP2;P2;SDS_P1;SDS_P2;PMS_P1;PMS_P2;Temp;Humidity;BMP_temperature;BMP_pressure;BME280_temperature;BME280_humidity;BME280_pressure;Samples;Min_cycle;Max_cycle;Signal;HPM_P1;HPM_P2
2022/12/29 00:02:04;;;;;;;;;2.00;2.00;;;;;19.97;59.37;100328.80;105392;1287;21751;-60
2022/12/29 00:04:32;;;;;;;;;1.50;1.50;;;;;19.96;59.51;100323.63;105424;1283;19529;-61
2022/12/29 00:06:59;;;;;;;;;2.00;2.00;;;;;19.97;59.44;100321.13;105387;1300;19177;-60
2022/12/29 00:09:26;;;;;;;;;2.00;2.00;;;;;19.97;59.30;100321.71;105372;1300;20100;-62
2022/12/29 00:11:54;;;;;;;;;2.00;2.00;;;;;19.96;59.33;100316.98;105310;1299;19298;-61
2022/12/29 00:17:07;;;;;;;;;2.00;2.00;;;;;19.95;59.33;100315.00;105376;1277;20102;-60
2022/12/29 00:36:04;;;;;;;;;2.00;2.00;;;;;19.94;59.29;100281.05;105368;1291;20824;-60
2022/12/29 00:44:09;;;;;;;;;4.00;2.00;;;;;19.95;59.05;100278.13;105312;1295;21033;-60
2022/12/29 00:46:37;;;;;;;;;1.00;1.00;;;;;19.94;59.16;100274.90;105341;1291;22188;-61
2022/12/29 00:51:49;;;;;;;;;1.50;1.50;;;;;19.94;59.31;100277.86;105407;1300;19414;-61
2022/12/29 00:54:17;;;;;;;;;2.00;1.00;;;;;19.94;59.04;100276.53;105384;1281;22761;-60
2022/12/29 00:56:44;;;;;;;;;2.00;2.00;;;;;19.94;59.04;100275.44;105384;1300;18813;-60
2022/12/29 00:59:12;;;;;;;;;1.50;1.50;;;;;19.93;59.16;100277.73;105372;1283;20665;-61
2022/12/29 01:01:40;;;;;;;;;2.00;2.00;;;;;19.94;59.22;100281.98;105417;1298;19667;-60
2022/12/29 01:04:07;;;;;;;;;1.00;1.00;;;;;19.94;59.30;100283.48;105410;1306;18841;-59
2022/12/29 01:06:35;;;;;;;;;1.00;1.00;;;;;19.94;59.25;100287.63;105350;1284;19296;-61
2022/12/29 01:11:47;;;;;;;;;2.00;2.00;;;;;19.93;59.26;100280.87;105353;1285;21043;-60
2022/12/29 01:14:15;;;;;;;;;2.00;2.00;;;;;19.91;59.22;100277.77;105357;1290;20878;-58
2022/12/29 01:16:42;;;;;;;;;2.00;2.00;;;;;19.91;59.18;100278.93;105367;1303;23338;-60
2022/12/29 01:19:10;;;;;;;;;2.00;2.00;;;;;19.93;59.31;100280.88;105416;1300;18532;-60
2022/12/29 01:21:37;;;;;;;;;2.00;2.00;;;;;19.93;59.07;100276.52;105302;1285;19508;-60
2022/12/29 01:24:04;;;;;;;;;1.50;1.50;;;;;19.92;59.21;100269.21;105301;1291;18525;-59
2022/12/29 01:26:32;;;;;;;;;1.50;1.50;;;;;19.91;59.31;100263.27;105285;1291;18525;-60
2022/12/29 01:28:59;;;;;;;;;2.00;2.00;;;;;19.92;59.11;100261.07;105287;1300;21236;-59
2022/12/29 01:31:27;;;;;;;;;1.00;1.00;;;;;19.92;59.33;100262.98;105270;1285;22553;-60
2022/12/29 01:33:54;;;;;;;;;2.00;2.00;;;;;19.92;59.21;100266.79;105400;1285;18524;-61
2022/12/29 01:36:22;;;;;;;;;;;;;;;19.93;59.04;100269.77;105312;1284;20915;-60
2022/12/29 01:38:49;;;;;;;;;1.00;1.00;;;;;19.91;58.93;100267.64;105354;1277;19616;-60
2022/12/29 01:41:17;;;;;;;;;2.00;2.00;;;;;19.91;59.10;100263.15;105379;1291;19849;-59
2022/12/29 01:43:44;;;;;;;;;1.00;1.00;;;;;19.91;59.03;100261.48;105384;1292;20744;-58
2022/12/29 01:46:12;;;;;;;;;1.00;1.00;;;;;19.91;58.97;100259.86;105319;1301;18705;-60
2022/12/29 01:48:39;;;;;;;;;1.00;1.00;;;;;19.91;59.25;100268.06;105265;1277;20164;-58
2022/12/29 01:51:07;;;;;;;;;1.00;1.00;;;;;19.92;59.07;100272.48;105274;1298;21114;-58
2022/12/29 01:53:34;;;;;;;;;1.00;1.00;;;;;19.91;59.31;100271.42;105265;1278;22886;-59
2022/12/29 01:56:01;;;;;;;;;1.00;1.00;;;;;19.91;59.16;100262.04;105369;1294;19939;-59
2022/12/29 01:58:29;;;;;;;;;1.00;1.00;;;;;19.91;59.06;100256.25;105372;1291;19365;-58
2022/12/29 02:00:56;;;;;;;;;;;;;;;19.91;58.96;100256.66;105314;1300;23487;-58
2022/12/29 02:03:24;;;;;;;;;1.00;1.00;;;;;19.90;59.05;100258.67;105361;1277;19779;-60
2022/12/29 02:05:51;;;;;;;;;;;;;;;19.91;59.14;100254.27;105346;1298;19282;-61
2022/12/29 02:08:19;;;;;;;;;2.00;2.00;;;;;19.89;58.90;100245.05;105362;1298;22481;-60
2022/12/29 02:10:46;;;;;;;;;1.00;1.00;;;;;19.89;59.04;100242.84;105320;1294;18599;-59
2022/12/29 02:13:14;;;;;;;;;1.00;1.00;;;;;19.90;59.14;100228.88;105398;1300;20819;-60
2022/12/29 02:15:41;;;;;;;;;1.00;1.00;;;;;19.89;59.14;100243.00;105378;1300;19658;-60
2022/12/29 02:18:09;;;;;;;;;1.00;1.00;;;;;19.91;59.07;100240.52;105348;1298;18519;-59
2022/12/29 02:20:36;;;;;;;;;1.00;1.00;;;;;19.90;59.03;100237.50;105308;1277;19485;-61
2022/12/29 02:23:03;;;;;;;;;1.00;1.00;;;;;19.90;59.12;100223.97;105374;1300;18373;-60
2022/12/29 02:25:31;;;;;;;;;2.00;2.00;;;;;19.89;58.90;100222.42;105388;1300;21360;-60
2022/12/29 02:27:58;;;;;;;;;1.00;1.00;;;;;19.89;59.00;100214.97;105302;1299;21072;-60
2022/12/29 02:30:26;;;;;;;;;1.00;1.00;;;;;19.89;58.78;100215.39;105283;1300;21772;-59
2022/12/29 02:32:53;;;;;;;;;2.00;2.00;;;;;19.89;58.89;100210.15;105358;1283;18530;-60
2022/12/29 02:35:21;;;;;;;;;2.00;1.00;;;;;19.88;59.00;100199.81;105354;1300;20916;-60
2022/12/29 02:37:48;;;;;;;;;1.00;1.00;;;;;19.89;58.94;100194.77;105326;1285;19636;-59
2022/12/29 02:40:16;;;;;;;;;1.00;1.00;;;;;19.89;58.83;100189.20;105398;1299;22957;-59
2022/12/29 02:42:43;;;;;;;;;1.00;1.00;;;;;19.89;58.89;100188.99;105364;1283;19570;-62
2022/12/29 02:45:11;;;;;;;;;1.50;1.50;;;;;19.89;58.93;100184.38;105348;1298;19954;-60
2022/12/29 02:47:38;;;;;;;;;1.00;1.00;;;;;19.88;58.90;100181.49;105381;1285;21146;-59
2022/12/29 02:50:06;;;;;;;;;1.00;1.00;;;;;19.88;58.94;100175.25;105350;1295;20768;-60
2022/12/29 02:52:33;;;;;;;;;1.00;1.00;;;;;19.87;58.97;100164.23;105298;1293;19859;-59
2022/12/29 02:55:01;;;;;;;;;2.00;1.00;;;;;19.88;58.83;100160.69;105375;1284;22747;-60
2022/12/29 02:57:28;;;;;;;;;;;;;;;19.87;58.95;100156.90;105364;1283;20799;-60
2022/12/29 02:59:56;;;;;;;;;2.00;2.00;;;;;19.87;58.70;100162.27;105383;1298;18764;-61
2022/12/29 03:02:23;;;;;;;;;1.00;1.00;;;;;19.86;58.77;100155.64;105359;1300;18685;-60
2022/12/29 03:04:51;;;;;;;;;1.00;1.00;;;;;19.86;58.95;100155.47;105310;1278;20951;-59
2022/12/29 03:07:18;;;;;;;;;1.00;1.00;;;;;19.88;58.75;100146.80;105365;1298;23837;-59
2022/12/29 03:09:45;;;;;;;;;;;;;;;19.87;58.74;100144.06;105385;1300;22876;-59
2022/12/29 03:12:13;;;;;;;;;1.00;1.00;;;;;19.85;58.87;100152.14;105326;1284;21053;-60
2022/12/29 03:17:26;;;;;;;;;1.00;1.00;;;;;19.87;58.74;100150.55;105348;1285;20265;-61
2022/12/29 03:19:53;;;;;;;;;;;;;;;19.87;58.90;100148.84;105367;1298;19649;-59
2022/12/29 03:22:31;;;;;;;;;1.00;1.00;;;;;19.87;58.70;100140.52;105394;1298;18422;-61
2022/12/29 03:24:59;;;;;;;;;1.00;1.00;;;;;19.86;58.73;100142.21;105508;1291;18522;-58
2022/12/29 03:27:26;;;;;;;;;1.00;1.00;;;;;19.86;58.53;100144.77;105387;1291;20923;-60
2022/12/29 03:29:54;;;;;;;;;1.00;1.00;;;;;19.87;58.74;100150.51;105357;1277;18425;-60
2022/12/29 03:32:21;;;;;;;;;1.00;1.00;;;;;19.87;58.63;100151.39;105391;1300;18528;-60
2022/12/29 03:34:49;;;;;;;;;1.00;1.00;;;;;19.86;58.76;100157.30;105364;1300;20972;-60
2022/12/29 03:37:16;;;;;;;;;1.00;1.00;;;;;19.85;58.65;100156.52;105403;1300;23445;-60
2022/12/29 03:39:44;;;;;;;;;1.00;1.00;;;;;19.87;58.57;100154.62;105305;1300;20163;-60
2022/12/29 03:42:11;;;;;;;;;3.00;2.00;;;;;19.87;58.75;100151.09;105344;1300;19729;-60
2022/12/29 03:44:39;;;;;;;;;1.00;1.00;;;;;19.86;58.47;100152.61;105370;1290;22782;-61
2022/12/29 03:47:06;;;;;;;;;1.00;1.00;;;;;19.86;58.67;100142.82;105261;1292;18506;-59
2022/12/29 03:49:33;;;;;;;;;1.00;1.00;;;;;19.84;58.70;100142.67;105269;1284;20768;-59
2022/12/29 03:52:01;;;;;;;;;1.00;1.00;;;;;19.86;58.41;100137.05;105445;1298;22695;-61
2022/12/29 03:54:28;;;;;;;;;1.00;1.00;;;;;19.85;58.71;100134.20;105338;1291;20093;-55
2022/12/29 03:56:56;;;;;;;;;1.00;1.00;;;;;19.85;58.54;100135.11;105335;1275;19642;-57
2022/12/29 03:59:23;;;;;;;;;1.00;1.00;;;;;19.85;58.62;100134.44;105345;1278;19576;-59
2022/12/29 04:01:51;;;;;;;;;1.00;1.00;;;;;19.83;58.68;100132.66;105354;1293;18521;-60
2022/12/29 04:04:19;;;;;;;;;1.00;1.00;;;;;19.83;58.52;100126.64;105418;1300;19298;-59
2022/12/29 04:06:46;;;;;;;;;;;;;;;19.84;58.53;100123.09;105333;1282;22617;-59
2022/12/29 04:09:13;;;;;;;;;1.00;1.00;;;;;19.84;58.63;100122.25;105400;1285;19498;-60
2022/12/29 04:11:41;;;;;;;;;1.00;1.00;;;;;19.84;58.55;100126.52;105295;1275;22266;-61
2022/12/29 04:14:08;;;;;;;;;2.00;2.00;;;;;19.84;58.63;100120.17;105306;1283;18601;-61
2022/12/29 04:16:38;;;;;;;;;1.00;1.00;;;;;19.84;58.53;100113.92;105350;1290;20474;-60
2022/12/29 04:19:05;;;;;;;;;1.00;1.00;;;;;19.82;58.71;100116.25;105338;1306;19515;-60
2022/12/29 04:21:33;;;;;;;;;1.00;1.00;;;;;19.83;58.76;100110.36;105372;1283;18819;-60
2022/12/29 04:24:01;;;;;;;;;1.00;1.00;;;;;19.82;58.66;100108.55;105336;1300;20537;-58
2022/12/29 04:26:28;;;;;;;;;1.00;1.00;;;;;19.83;58.55;100115.46;105378;1285;21032;-59
2022/12/29 04:28:56;;;;;;;;;2.00;2.00;;;;;19.83;58.50;100111.11;105356;1299;22980;-59
2022/12/29 04:31:23;;;;;;;;;1.00;1.00;;;;;19.83;58.57;100112.33;105338;1300;20024;-60
2022/12/29 04:33:51;;;;;;;;;1.00;1.00;;;;;19.82;58.44;100118.26;105243;1296;20973;-59
2022/12/29 04:36:18;;;;;;;;;1.50;1.50;;;;;19.82;58.59;100112.23;105363;1290;19596;-59
2022/12/29 04:38:46;;;;;;;;;1.00;1.00;;;;;19.83;58.55;100104.80;105314;1284;20262;-60
2022/12/29 04:41:13;;;;;;;;;1.00;1.00;;;;;19.83;58.50;100100.95;105379;1300;19314;-61
2022/12/29 04:43:41;;;;;;;;;1.50;1.50;;;;;19.82;58.54;100101.23;105351;1298;19873;-59
2022/12/29 04:46:09;;;;;;;;;1.00;1.00;;;;;19.82;58.61;100097.59;105362;1290;18647;-59
2022/12/29 04:48:36;;;;;;;;;1.00;1.00;;;;;19.83;58.45;100103.30;105326;1291;22773;-60
2022/12/29 04:51:04;;;;;;;;;1.00;1.00;;;;;19.82;58.50;100098.85;105354;1304;19577;-61
2022/12/29 04:53:31;;;;;;;;;4.00;2.00;;;;;19.82;58.55;100094.88;105259;1300;18517;-57
2022/12/29 04:55:59;;;;;;;;;1.00;1.00;;;;;19.82;58.56;100099.43;105272;1284;20820;-59
2022/12/29 04:58:26;;;;;;;;;1.00;1.00;;;;;19.82;58.66;100098.04;105313;1300;19776;-60
2022/12/29 05:00:54;;;;;;;;;1.00;1.00;;;;;19.82;58.37;100097.22;105325;1285;19009;-59
2022/12/29 05:03:21;;;;;;;;;1.00;1.00;;;;;19.81;58.54;100089.92;105282;1300;21179;-60
2022/12/29 05:05:49;;;;;;;;;1.00;1.00;;;;;19.82;58.44;100095.12;105301;1283;18408;-60
2022/12/29 05:08:16;;;;;;;;;2.00;1.00;;;;;19.82;58.57;100096.95;105293;1291;23494;-61
2022/12/29 05:10:44;;;;;;;;;1.00;1.00;;;;;19.82;58.54;100096.38;105270;1278;20969;-60
2022/12/29 05:13:11;;;;;;;;;;;;;;;19.82;58.43;100092.36;105308;1294;18529;-59
2022/12/29 05:15:39;;;;;;;;;1.00;1.00;;;;;19.81;58.49;100085.77;105351;1285;19781;-61
2022/12/29 05:18:07;;;;;;;;;1.00;1.00;;;;;19.80;58.41;100079.42;105346;1300;19518;-60
2022/12/29 05:20:34;;;;;;;;;2.00;1.00;;;;;19.80;58.41;100081.60;105334;1299;21129;-61
2022/12/29 05:23:01;;;;;;;;;1.00;1.00;;;;;19.80;58.43;100080.88;105235;1277;18634;-61
2022/12/29 05:25:29;;;;;;;;;1.00;1.00;;;;;19.79;58.55;100082.56;105270;1294;21036;-59
2022/12/29 05:27:56;;;;;;;;;1.00;1.00;;;;;19.79;58.36;100076.73;105370;1291;19593;-62
2022/12/29 05:30:24;;;;;;;;;1.00;1.00;;;;;19.79;58.66;100080.84;105252;1285;153825;-60
2022/12/29 05:32:51;;;;;;;;;1.00;1.00;;;;;19.78;58.56;100081.21;105324;1277;20936;-59
2022/12/29 05:35:19;;;;;;;;;1.00;1.00;;;;;19.79;58.56;100085.06;105280;1301;18436;-58
2022/12/29 05:37:46;;;;;;;;;1.00;1.00;;;;;19.80;58.32;100085.67;105422;1284;19545;-59
2022/12/29 05:40:14;;;;;;;;;1.00;1.00;;;;;19.81;58.38;100080.20;105382;1278;22036;-61
2022/12/29 05:42:41;;;;;;;;;1.00;1.00;;;;;19.80;58.50;100073.03;105341;1299;19630;-60
2022/12/29 05:45:09;;;;;;;;;1.00;1.00;;;;;19.79;58.31;100062.60;105398;1300;18588;-60
2022/12/29 05:47:36;;;;;;;;;1.00;1.00;;;;;19.79;58.52;100054.31;105377;1294;19285;-61
2022/12/29 05:50:04;;;;;;;;;1.00;1.00;;;;;19.79;58.46;100053.52;105356;1284;18643;-60
2022/12/29 05:52:31;;;;;;;;;1.00;1.00;;;;;19.81;58.37;100053.77;105375;1293;22337;-61
2022/12/29 05:54:58;;;;;;;;;1.00;1.00;;;;;19.81;58.27;100053.36;105433;1300;20836;-59
2022/12/29 05:57:26;;;;;;;;;1.00;1.00;;;;;19.80;58.33;100046.98;105388;1297;22880;-60
2022/12/29 05:59:53;;;;;;;;;1.00;1.00;;;;;19.81;58.30;100042.72;105385;1291;19990;-59
2022/12/29 06:02:21;;;;;;;;;1.00;1.00;;;;;19.80;58.35;100039.85;105386;1283;20529;-59
2022/12/29 06:04:48;;;;;;;;;1.00;1.00;;;;;19.78;58.53;100031.92;105351;1278;18486;-58
2022/12/29 06:07:16;;;;;;;;;1.00;1.00;;;;;19.79;58.51;100029.30;105397;1293;18548;-59
2022/12/29 06:09:43;;;;;;;;;2.00;2.00;;;;;19.79;58.49;100031.69;105404;1285;20855;-59
2022/12/29 06:12:10;;;;;;;;;1.00;1.00;;;;;19.79;58.62;100032.06;105355;1284;22939;-60
2022/12/29 06:14:38;;;;;;;;;1.00;1.00;;;;;19.78;58.44;100028.50;105361;1289;18571;-62
2022/12/29 06:17:05;;;;;;;;;1.00;1.00;;;;;19.77;58.52;100023.89;105362;1285;19457;-61
2022/12/29 06:19:33;;;;;;;;;1.00;1.00;;;;;19.78;58.37;100025.77;105367;1300;18387;-61
2022/12/29 06:22:00;;;;;;;;;1.00;1.00;;;;;19.79;58.43;100025.66;105311;1294;20147;-59
2022/12/29 06:24:28;;;;;;;;;2.00;1.00;;;;;19.78;58.40;100022.34;105323;1285;20935;-57
2022/12/29 06:26:55;;;;;;;;;1.00;1.00;;;;;19.78;58.24;100028.08;105309;1285;19945;-59
2022/12/29 06:29:23;;;;;;;;;1.00;1.00;;;;;19.78;58.32;100025.10;105305;1300;18642;-60
2022/12/29 06:31:50;;;;;;;;;1.00;1.00;;;;;19.78;58.39;100033.94;105271;1298;19280;-60
2022/12/29 06:34:18;;;;;;;;;1.00;1.00;;;;;19.78;58.45;100041.42;105331;1300;18280;-59
2022/12/29 06:36:45;;;;;;;;;1.00;1.00;;;;;19.77;58.42;100044.92;105334;1300;18379;-59
2022/12/29 06:39:13;;;;;;;;;1.00;1.00;;;;;19.78;58.28;100053.02;105230;1290;21893;-61
2022/12/29 06:41:40;;;;;;;;;1.00;1.00;;;;;19.77;58.34;100048.48;105303;1302;19626;-60
2022/12/29 06:44:08;;;;;;;;;1.00;1.00;;;;;19.77;58.53;100036.56;105332;1284;20111;-60
2022/12/29 06:46:35;;;;;;;;;;;;;;;19.77;58.62;100031.46;105447;1300;19321;-60
2022/12/29 06:49:03;;;;;;;;;1.00;1.00;;;;;19.77;58.57;100025.69;105438;1300;19759;-59
2022/12/29 06:51:30;;;;;;;;;2.00;1.00;;;;;19.79;58.51;100024.95;105329;1285;22364;-61
2022/12/29 06:53:58;;;;;;;;;1.00;1.00;;;;;19.80;58.53;100028.65;105362;1285;19321;-59
2022/12/29 06:56:25;;;;;;;;;1.00;1.00;;;;;19.81;58.55;100033.23;105375;1276;20061;-58
2022/12/29 06:58:52;;;;;;;;;1.00;1.00;;;;;19.80;58.56;100030.79;105290;1277;20010;-59
2022/12/29 07:01:20;;;;;;;;;1.00;1.00;;;;;19.80;58.56;100038.77;105370;1300;21605;-57
2022/12/29 07:03:47;;;;;;;;;1.00;1.00;;;;;19.83;58.35;100039.90;105358;1284;20122;-62
2022/12/29 07:06:15;;;;;;;;;;;;;;;19.86;58.60;100043.16;105304;1288;20113;-62
2022/12/29 07:08:42;;;;;;;;;1.00;1.00;;;;;19.86;58.94;100049.48;105336;1300;20825;-59
2022/12/29 07:11:10;;;;;;;;;1.00;1.00;;;;;19.85;59.02;100054.78;105326;1283;18419;-61
2022/12/29 07:13:37;;;;;;;;;2.00;2.00;;;;;19.86;58.93;100056.51;105384;1300;18511;-61
2022/12/29 07:16:04;;;;;;;;;2.00;1.00;;;;;19.85;59.11;100057.88;105432;1286;20816;-58
2022/12/29 07:18:32;;;;;;;;;1.00;1.00;;;;;19.84;59.22;100064.90;105313;1291;19617;-61
2022/12/29 07:20:59;;;;;;;;;1.00;1.00;;;;;19.84;59.33;100061.42;105341;1285;18477;-59
2022/12/29 07:23:27;;;;;;;;;1.00;1.00;;;;;19.82;59.29;100048.14;105355;1283;21887;-60
2022/12/29 07:25:54;;;;;;;;;1.00;1.00;;;;;19.82;59.42;100043.29;105378;1303;19552;-60
2022/12/29 07:28:21;;;;;;;;;2.00;2.00;;;;;19.81;59.25;100054.36;105380;1292;22685;-60
2022/12/29 07:30:49;;;;;;;;;1.00;1.00;;;;;19.81;59.13;100058.80;105319;1277;19443;-61
2022/12/29 07:33:16;;;;;;;;;1.00;1.00;;;;;19.81;59.41;100059.52;105313;1291;19857;-60
2022/12/29 07:35:44;;;;;;;;;1.00;1.00;;;;;19.79;59.30;100063.19;105375;1285;23437;-60
2022/12/29 07:38:11;;;;;;;;;1.00;1.00;;;;;19.80;59.40;100061.48;105333;1277;19966;-58
2022/12/29 07:40:39;;;;;;;;;1.00;1.00;;;;;19.78;59.25;100054.73;105332;1300;20118;-58
2022/12/29 07:43:06;;;;;;;;;1.00;1.00;;;;;19.83;59.10;100051.08;105367;1300;18503;-60
2022/12/29 07:45:34;;;;;;;;;1.00;1.00;;;;;19.85;59.06;100052.15;105337;1283;20860;-58
2022/12/29 07:48:02;;;;;;;;;1.00;1.00;;;;;19.83;59.30;100051.63;105374;1293;19566;-61
2022/12/29 07:50:29;;;;;;;;;1.00;1.00;;;;;19.86;59.15;100057.23;105304;1285;19842;-60
2022/12/29 07:52:57;;;;;;;;;1.00;1.00;;;;;19.89;59.12;100052.17;105340;1298;19392;-61
2022/12/29 07:55:24;;;;;;;;;1.00;1.00;;;;;19.89;59.40;100056.02;105392;1301;18571;-59
2022/12/29 07:57:52;;;;;;;;;1.00;1.00;;;;;19.88;59.30;100051.79;105349;1284;18662;-60
2022/12/29 08:00:19;;;;;;;;;1.00;1.00;;;;;19.88;59.26;100048.10;105376;1298;19391;-59
2022/12/29 08:02:46;;;;;;;;;4.00;2.00;;;;;19.87;59.14;100050.23;105366;1300;19600;-61
2022/12/29 08:05:15;;;;;;;;;1.00;1.00;;;;;19.88;59.22;100043.92;105360;1275;19994;-61
2022/12/29 08:07:42;;;;;;;;;2.00;2.00;;;;;19.89;59.33;100039.66;105303;1285;22718;-59
2022/12/29 08:10:10;;;;;;;;;1.00;1.00;;;;;19.89;59.40;100043.05;105374;1300;19785;-59
2022/12/29 08:12:37;;;;;;;;;1.00;1.00;;;;;19.94;59.46;100050.27;105368;1277;21176;-58
2022/12/29 08:15:04;;;;;;;;;1.00;1.00;;;;;19.95;59.42;100045.19;105326;1283;20804;-58
2022/12/29 08:17:32;;;;;;;;;4.00;2.00;;;;;19.97;59.44;100044.25;105337;1285;20064;-61
2022/12/29 08:20:00;;;;;;;;;2.00;2.00;;;;;20.00;59.36;100035.04;105169;1299;18623;-62
2022/12/29 08:22:27;;;;;;;;;2.00;2.00;;;;;19.99;59.43;100028.73;105327;1290;19746;-63
2022/12/29 08:24:55;;;;;;;;;1.00;1.00;;;;;19.99;59.50;100026.08;105352;1292;21926;-63
2022/12/29 08:27:22;;;;;;;;;4.00;2.00;;;;;20.02;59.51;100021.24;105294;1300;18503;-61
2022/12/29 08:29:49;;;;;;;;;3.00;2.00;;;;;19.98;59.55;100026.98;105266;1291;19486;-58
2022/12/29 08:32:17;;;;;;;;;2.00;1.00;;;;;19.95;59.52;100037.40;105211;1284;22437;-61
2022/12/29 08:34:44;;;;;;;;;1.50;1.50;;;;;19.93;59.78;100039.52;105149;1277;18503;-60
2022/12/29 08:37:12;;;;;;;;;1.00;1.00;;;;;19.93;59.72;100041.73;105304;1304;21106;-61
2022/12/29 08:39:39;;;;;;;;;1.00;1.00;;;;;19.93;59.69;100034.28;105249;1295;18550;-60
2022/12/29 08:42:07;;;;;;;;;2.00;2.00;;;;;19.94;60.10;100034.00;105271;1284;19006;-60
2022/12/29 08:44:34;;;;;;;;;1.00;1.00;;;;;19.94;59.88;100032.91;105262;1283;19504;-58
2022/12/29 08:47:02;;;;;;;;;2.00;2.00;;;;;19.93;60.11;100029.85;105268;1285;18574;-60
2022/12/29 08:49:29;;;;;;;;;1.00;1.00;;;;;19.94;60.05;100031.53;105311;1290;18576;-62
2022/12/29 08:51:57;;;;;;;;;1.00;1.00;;;;;19.97;60.11;100045.36;105332;1290;20960;-61
2022/12/29 08:54:24;;;;;;;;;1.00;1.00;;;;;19.96;60.03;100041.09;105310;1303;18413;-61
2022/12/29 08:56:51;;;;;;;;;2.00;2.00;;;;;19.99;60.06;100042.69;105304;1283;20413;-61
2022/12/29 08:59:19;;;;;;;;;2.00;2.00;;;;;20.00;60.04;100045.71;105307;1285;21046;-60
2022/12/29 09:01:46;;;;;;;;;;;;;;;20.03;60.19;100051.52;105346;1298;18387;-61
2022/12/29 09:04:14;;;;;;;;;;;;;;;20.01;60.06;100052.71;105390;1292;19620;-62
2022/12/29 09:06:41;;;;;;;;;;;;;;;20.00;60.07;100050.98;105293;1285;22650;-62
2022/12/29 09:09:09;;;;;;;;;2.00;2.00;;;;;19.97;59.87;100056.02;105373;1283;18604;-61
2022/12/29 09:11:36;;;;;;;;;5.00;5.00;;;;;19.97;59.62;100047.21;105298;1300;21349;-61
2022/12/29 09:14:03;;;;;;;;;1.00;1.00;;;;;19.95;59.79;100042.91;105343;1300;20735;-60
2022/12/29 09:16:31;;;;;;;;;2.00;2.00;;;;;19.93;59.72;100037.54;105386;1291;18485;-62
2022/12/29 09:18:58;;;;;;;;;1.00;1.00;;;;;19.92;59.71;100043.56;105383;1291;18765;-65
2022/12/29 09:21:26;;;;;;;;;1.00;1.00;;;;;19.91;59.88;100038.80;105357;1284;19381;-61
2022/12/29 09:23:53;;;;;;;;;1.00;1.00;;;;;19.90;59.83;100030.80;105297;1300;18775;-63
2022/12/29 09:26:21;;;;;;;;;1.00;1.00;;;;;19.89;59.58;100029.83;105384;1278;18856;-61
2022/12/29 09:28:48;;;;;;;;;3.00;3.00;;;;;19.90;59.38;100030.80;105348;1285;20739;-61
2022/12/29 09:31:15;;;;;;;;;2.00;2.00;;;;;19.89;59.34;100028.91;105339;1300;19655;-62
2022/12/29 09:33:43;;;;;;;;;1.00;1.00;;;;;19.90;59.30;100029.92;105266;1284;18547;-61
2022/12/29 09:36:10;;;;;;;;;1.00;1.00;;;;;19.90;59.41;100020.34;105279;1300;23890;-62
2022/12/29 09:38:38;;;;;;;;;2.00;2.00;;;;;19.90;59.31;100022.23;105358;1277;18650;-61
2022/12/29 09:41:05;;;;;;;;;2.00;2.00;;;;;19.89;59.28;100017.99;105324;1299;18855;-61
2022/12/29 09:43:33;;;;;;;;;;;;;;;19.90;59.40;100017.61;105406;1300;21968;-62
2022/12/29 09:46:00;;;;;;;;;1.00;1.00;;;;;19.90;59.44;100024.14;105354;1291;22903;-61
2022/12/29 09:48:27;;;;;;;;;1.00;1.00;;;;;19.89;59.55;100025.27;105252;1300;18556;-63
2022/12/29 09:50:55;;;;;;;;;1.00;1.00;;;;;19.91;59.53;100022.53;105244;1306;22484;-61
2022/12/29 09:53:23;;;;;;;;;1.50;1.50;;;;;19.92;59.56;100021.73;105384;1277;18404;-63
2022/12/29 09:55:50;;;;;;;;;1.00;1.00;;;;;19.90;59.51;100015.91;105492;1300;18727;-63
2022/12/29 09:58:18;;;;;;;;;1.00;1.00;;;;;19.89;59.57;100023.64;105453;1300;23011;-63
2022/12/29 10:00:45;;;;;;;;;4.00;2.00;;;;;19.89;59.46;100018.40;105359;1298;19818;-63
2022/12/29 10:03:12;;;;;;;;;2.00;2.00;;;;;19.88;59.38;100012.92;105383;1278;19026;-61
2022/12/29 10:05:40;;;;;;;;;2.00;2.00;;;;;19.87;59.45;100014.50;105371;1300;19294;-61
2022/12/29 10:08:08;;;;;;;;;2.00;1.00;;;;;19.86;59.26;100012.25;105351;1300;20130;-63
2022/12/29 10:10:35;;;;;;;;;2.00;2.00;;;;;19.86;59.61;100010.83;105465;1300;19980;-62
2022/12/29 10:13:03;;;;;;;;;1.00;1.00;;;;;19.85;59.34;100001.48;105451;1285;19407;-62
2022/12/29 10:15:30;;;;;;;;;1.00;1.00;;;;;19.85;59.35;100003.16;105326;1300;22828;-61
2022/12/29 10:17:58;;;;;;;;;2.00;2.00;;;;;19.85;59.38;100004.95;105345;1290;19882;-61
2022/12/29 10:20:26;;;;;;;;;2.00;2.00;;;;;19.85;59.28;100010.56;105354;1285;19941;-62
2022/12/29 10:22:53;;;;;;;;;1.00;1.00;;;;;19.85;59.38;100008.59;105331;1300;21554;-61
2022/12/29 10:25:21;;;;;;;;;1.00;1.00;;;;;19.85;59.34;100004.95;105436;1292;18660;-62
2022/12/29 10:27:48;;;;;;;;;;;;;;;19.85;59.30;100006.83;105289;1306;21454;-61
2022/12/29 10:30:15;;;;;;;;;1.00;1.00;;;;;19.85;58.97;99996.49;105396;1300;18444;-61
2022/12/29 10:32:43;;;;;;;;;1.50;1.50;;;;;19.85;59.33;99996.80;105392;1291;20116;-61
2022/12/29 10:35:11;;;;;;;;;1.00;1.00;;;;;19.85;59.26;100000.56;105377;1285;19329;-62
2022/12/29 10:37:38;;;;;;;;;1.00;1.00;;;;;19.85;59.25;99995.20;105458;1298;18295;-62
2022/12/29 10:40:06;;;;;;;;;2.00;2.00;;;;;19.84;59.07;99989.30;105300;1285;19728;-61
2022/12/29 10:42:33;;;;;;;;;1.00;1.00;;;;;19.84;59.18;99988.92;105292;1278;20937;-61
2022/12/29 10:45:00;;;;;;;;;1.00;1.00;;;;;19.83;59.05;99977.99;105330;1284;18426;-63
2022/12/29 10:47:28;;;;;;;;;2.00;1.00;;;;;19.84;59.03;99977.58;105381;1292;19992;-62
2022/12/29 10:49:56;;;;;;;;;1.00;1.00;;;;;19.84;59.00;99978.21;105356;1300;20782;-62
2022/12/29 10:52:24;;;;;;;;;;;;;;;19.84;59.07;99978.42;105408;1291;22212;-62
2022/12/29 10:54:51;;;;;;;;;2.00;2.00;;;;;19.84;59.21;99980.47;105400;1300;18198;-63
2022/12/29 10:57:19;;;;;;;;;;;;;;;19.85;59.19;99989.05;105399;1278;19433;-61
2022/12/29 10:59:46;;;;;;;;;1.00;1.00;;;;;19.84;58.90;99984.20;105382;1285;18439;-61
2022/12/29 11:02:13;;;;;;;;;1.00;1.00;;;;;19.84;58.81;99979.17;105329;1283;18822;-61
2022/12/29 11:04:41;;;;;;;;;1.00;1.00;;;;;19.83;58.85;99979.25;105383;1294;19469;-62
2022/12/29 11:07:09;;;;;;;;;1.00;1.00;;;;;19.83;58.90;99976.73;105405;1284;21977;-60
2022/12/29 11:09:36;;;;;;;;;1.50;1.50;;;;;19.83;59.01;99977.45;105289;1283;18810;-60
2022/12/29 11:12:04;;;;;;;;;1.00;1.00;;;;;19.84;59.03;99973.73;105360;1300;19494;-60
2022/12/29 11:14:31;;;;;;;;;1.00;1.00;;;;;19.83;58.97;99969.91;105380;1291;19990;-61
2022/12/29 11:16:59;;;;;;;;;1.00;1.00;;;;;19.84;58.94;99972.14;105362;1300;18526;-62
2022/12/29 11:19:26;;;;;;;;;1.00;1.00;;;;;19.83;58.88;99975.48;105378;1300;19334;-62
2022/12/29 11:21:54;;;;;;;;;2.00;2.00;;;;;19.84;58.86;99968.97;105364;1292;18559;-63
2022/12/29 11:24:21;;;;;;;;;1.00;1.00;;;;;19.83;58.76;99959.72;105351;1299;19770;-62
2022/12/29 11:26:49;;;;;;;;;1.00;1.00;;;;;19.83;58.80;99963.34;105301;1293;19511;-63
2022/12/29 11:29:16;;;;;;;;;1.00;1.00;;;;;19.83;58.87;99963.48;105363;1298;18217;-61
2022/12/29 11:31:44;;;;;;;;;1.00;1.00;;;;;19.83;58.77;99960.97;105309;1299;19877;-64
2022/12/29 11:34:11;;;;;;;;;1.00;1.00;;;;;19.83;58.80;99959.17;105362;1291;19369;-62
2022/12/29 11:36:38;;;;;;;;;1.00;1.00;;;;;19.84;58.71;99955.87;105376;1298;19892;-64
2022/12/29 11:39:06;;;;;;;;;;;;;;;19.84;58.75;99955.29;105400;1301;20134;-62
2022/12/29 11:41:33;;;;;;;;;1.00;1.00;;;;;19.84;58.66;99952.40;105336;1299;20789;-61
2022/12/29 11:44:01;;;;;;;;;1.00;1.00;;;;;19.83;58.55;99949.17;105364;1291;18517;-63
2022/12/29 11:46:28;;;;;;;;;1.00;1.00;;;;;19.84;58.68;99947.39;105423;1300;19922;-63
2022/12/29 11:48:58;;;;;;;;;1.00;1.00;;;;;19.84;58.81;99949.23;105388;1285;20836;-61
2022/12/29 11:51:25;;;;;;;;;1.00;1.00;;;;;19.85;58.44;99941.73;105308;1306;22418;-61
2022/12/29 11:53:53;;;;;;;;;2.00;1.00;;;;;19.84;58.56;99932.98;105295;1275;20288;-61
2022/12/29 11:56:22;;;;;;;;;1.00;1.00;;;;;19.84;58.52;99935.26;105361;1292;19362;-62